Velda Village Hills, Missouri
Current Conditions -  °F | °C
As of 7:51 AM on Wednesday 28 Jan 2015 (Local Time) from KSTL Reporting Station
Haze Haze  
Wind Chill: 21°   Ceiling: 25000
Heat Index: 31°   Visibility: 5mi
Dew Point: 27°   Wind: 13mph
Humidity: 85%   Direction: 140°SE
Pressure: 30.23"   Gusts: NA
Location:  38.7055°N, 90.3021°W
Report Text: KSTL 281351Z 14011KT 5SM BR FEW010 BKN250 M01/M03 A3023 RMK AO2 SLP248 T10061028
Loading
Personal Weather Stations






























Interactive Weather Map New forecast layout! Learn more

10-Day Weather Forecast

Advertisements
Track Severe Weather on mobile